createdAt,value
2023-08-09T00:01:57.983Z,2.05
2023-08-09T00:04:25.520Z,0.88
2023-08-09T00:06:52.915Z,1.60
2023-08-09T00:09:22.191Z,1.00
2023-08-09T00:11:49.620Z,1.33
2023-08-09T00:14:17.201Z,1.00
2023-08-09T00:16:44.607Z,0.82
2023-08-09T00:19:12.354Z,0.75
2023-08-09T00:21:39.654Z,1.10
2023-08-09T00:24:07.548Z,2.97
2023-08-09T00:26:34.926Z,1.25
2023-08-09T00:29:03.695Z,0.85
2023-08-09T00:31:31.177Z,0.98
2023-08-09T00:33:59.810Z,2.08
2023-08-09T00:36:28.399Z,1.45
2023-08-09T00:38:55.998Z,0.52
2023-08-09T00:41:23.362Z,1.42
2023-08-09T00:43:51.057Z,3.22
2023-08-09T00:46:19.289Z,1.02
2023-08-09T00:48:47.032Z,0.77
2023-08-09T00:51:14.557Z,0.40
2023-08-09T00:53:43.054Z,1.40
2023-08-09T00:56:10.515Z,2.28
2023-08-09T00:58:38.204Z,1.52
2023-08-09T01:01:05.534Z,0.65
2023-08-09T01:03:33.519Z,2.38
2023-08-09T01:06:09.429Z,0.93
2023-08-09T01:08:44.705Z,1.25
2023-08-09T01:11:20.210Z,3.00
2023-08-09T01:13:52.790Z,3.03
2023-08-09T01:16:22.433Z,1.35
2023-08-09T01:18:53.903Z,2.58
2023-08-09T01:21:25.422Z,2.40
2023-08-09T01:23:53.999Z,2.47
2023-08-09T01:26:21.395Z,1.60
2023-08-09T01:28:49.856Z,1.58
2023-08-09T01:31:17.252Z,4.65
2023-08-09T01:33:46.388Z,1.85
2023-08-09T01:36:28.011Z,2.33
2023-08-09T01:41:30.148Z,4.13
2023-08-09T01:43:58.189Z,1.80
2023-08-09T01:46:27.086Z,1.52
2023-08-09T01:49:12.251Z,2.22
2023-08-09T01:51:40.525Z,4.63
2023-08-09T01:54:09.750Z,1.70
2023-08-09T01:56:37.216Z,1.58
2023-08-09T01:59:07.003Z,2.38
2023-08-09T02:01:34.449Z,2.08
2023-08-09T02:04:04.851Z,2.58
2023-08-09T02:06:33.752Z,3.03
2023-08-09T02:09:02.714Z,3.22
2023-08-09T02:11:30.100Z,2.38
2023-08-09T02:13:57.746Z,2.60
2023-08-09T02:16:25.188Z,4.65
2023-08-09T02:18:52.931Z,2.17
2023-08-09T02:21:20.230Z,2.47
2023-08-09T02:23:47.915Z,3.33
2023-08-09T02:26:16.846Z,5.13
2023-08-09T02:28:44.641Z,2.78
2023-08-09T02:31:12.740Z,4.28
2023-08-09T02:33:40.341Z,5.78
2023-08-09T02:36:07.702Z,2.70
2023-08-09T02:38:36.939Z,2.53
2023-08-09T02:41:07.411Z,4.38
2023-08-09T02:43:35.080Z,3.65
2023-08-09T02:46:02.610Z,4.70
2023-08-09T02:48:30.218Z,3.70
2023-08-09T02:50:57.740Z,3.55
2023-08-09T02:53:34.453Z,4.65
2023-08-09T02:56:02.118Z,2.53
2023-08-09T02:58:29.870Z,2.33
2023-08-09T03:00:57.183Z,4.30
2023-08-09T03:03:25.347Z,3.75
2023-08-09T03:05:52.749Z,4.72
2023-08-09T03:08:20.457Z,4.63
2023-08-09T03:10:49.771Z,2.92
2023-08-09T03:13:17.664Z,4.70
2023-08-09T03:15:45.017Z,3.55
2023-08-09T03:18:12.852Z,2.45
2023-08-09T03:20:40.218Z,4.70
2023-08-09T03:23:10.672Z,3.58
2023-08-09T03:25:38.572Z,3.85
2023-08-09T03:28:06.515Z,4.55
2023-08-09T03:30:34.491Z,4.22
2023-08-09T03:33:02.614Z,4.07
2023-08-09T03:35:31.120Z,6.15
2023-08-09T03:37:59.182Z,3.80
2023-08-09T03:40:26.654Z,5.13
2023-08-09T03:42:55.615Z,2.80
2023-08-09T03:45:23.771Z,4.25
2023-08-09T03:47:53.965Z,4.50
2023-08-09T03:50:23.997Z,4.10
2023-08-09T03:52:52.702Z,4.40
2023-08-09T03:55:20.726Z,5.38
2023-08-09T03:57:48.384Z,5.28
2023-08-09T04:00:19.176Z,3.40
2023-08-09T04:02:48.577Z,2.42
2023-08-09T04:05:18.315Z,4.13
2023-08-09T04:07:46.967Z,5.10
2023-08-09T04:10:14.602Z,3.20
2023-08-09T04:12:43.294Z,2.35
2023-08-09T04:15:11.379Z,5.40
2023-08-09T04:17:39.071Z,2.28
2023-08-09T04:20:10.775Z,3.70
2023-08-09T04:25:06.954Z,3.03
2023-08-09T04:27:34.806Z,3.75
2023-08-09T04:30:02.153Z,1.90
2023-08-09T04:32:29.900Z,2.55
2023-08-09T04:34:57.280Z,2.97
2023-08-09T04:37:25.212Z,3.53
2023-08-09T04:39:54.216Z,2.95
2023-08-09T04:42:21.858Z,3.08
2023-08-09T04:44:50.081Z,4.70
2023-08-09T04:47:17.718Z,4.80
2023-08-09T04:49:45.071Z,5.30
2023-08-09T04:52:12.715Z,4.07
2023-08-09T04:54:39.995Z,4.85
2023-08-09T04:57:07.627Z,4.28
2023-08-09T04:59:34.980Z,4.88
2023-08-09T05:02:02.882Z,4.22
2023-08-09T05:04:30.394Z,4.63
2023-08-09T05:06:58.142Z,3.28
2023-08-09T05:09:25.388Z,6.57
2023-08-09T05:11:53.029Z,3.85
2023-08-09T05:14:20.400Z,2.80
2023-08-09T05:16:47.997Z,4.30
2023-08-09T05:19:15.313Z,2.45
2023-08-09T05:21:43.076Z,2.45
2023-08-09T05:24:10.549Z,4.03
2023-08-09T05:26:38.390Z,3.33
2023-08-09T05:29:05.781Z,2.63
2023-08-09T05:31:33.877Z,2.17
2023-08-09T05:34:01.295Z,2.83
2023-08-09T05:36:28.929Z,2.75
2023-08-09T05:38:56.288Z,4.50
2023-08-09T05:41:23.971Z,2.35
2023-08-09T05:43:51.347Z,4.30
2023-08-09T05:46:19.042Z,3.90
2023-08-09T05:48:46.378Z,3.70
2023-08-09T05:51:13.995Z,2.97
2023-08-09T05:53:41.421Z,6.00
2023-08-09T05:56:09.174Z,5.47
2023-08-09T05:58:36.697Z,3.22
2023-08-09T06:01:07.525Z,4.25
2023-08-09T06:03:40.919Z,4.53
2023-08-09T06:06:08.830Z,5.15
2023-08-09T06:08:36.540Z,2.58
2023-08-09T06:11:04.595Z,3.63
2023-08-09T06:13:32.313Z,6.10
2023-08-09T06:16:00.201Z,4.43
2023-08-09T06:18:27.759Z,2.97
2023-08-09T06:20:56.059Z,3.88
2023-08-09T06:23:23.802Z,3.10
2023-08-09T06:25:51.684Z,1.67
2023-08-09T06:28:19.132Z,4.18
2023-08-09T06:30:46.908Z,3.75
2023-08-09T06:33:14.358Z,5.57
2023-08-09T06:35:42.007Z,4.30
2023-08-09T06:38:15.355Z,3.05
2023-08-09T06:40:43.823Z,4.93
2023-08-09T06:43:11.144Z,4.38
2023-08-09T06:45:39.782Z,7.38
2023-08-09T06:48:09.614Z,8.02
2023-08-09T06:50:37.647Z,6.33
2023-08-09T06:53:05.227Z,3.15
2023-08-09T06:55:33.576Z,4.72
2023-08-09T06:58:00.989Z,3.17
2023-08-09T07:00:28.876Z,3.47
2023-08-09T07:02:56.245Z,4.60
2023-08-09T07:05:25.379Z,3.85
2023-08-09T07:07:53.242Z,3.00
2023-08-09T07:10:21.409Z,2.67
2023-08-09T07:12:48.882Z,5.90
2023-08-09T07:15:16.630Z,3.85
2023-08-09T07:17:43.987Z,6.53
2023-08-09T07:20:12.829Z,4.65
2023-08-09T07:22:40.608Z,6.88
2023-08-09T07:25:09.347Z,5.90
2023-08-09T07:27:47.502Z,3.85
2023-08-09T07:30:17.064Z,5.28
2023-08-09T07:32:45.007Z,4.88
2023-08-09T07:35:15.117Z,3.75
2023-08-09T07:37:44.083Z,4.68
2023-08-09T07:40:16.156Z,4.85
2023-08-09T07:42:44.107Z,3.63
2023-08-09T07:45:12.282Z,2.63
2023-08-09T07:47:41.808Z,5.20
2023-08-09T07:50:10.097Z,5.05
2023-08-09T07:52:38.335Z,7.13
2023-08-09T07:55:10.207Z,4.85
2023-08-09T07:57:37.704Z,5.80
2023-08-09T08:00:15.439Z,6.38
2023-08-09T08:02:47.563Z,5.20
2023-08-09T08:05:16.634Z,4.32
2023-08-09T08:07:46.741Z,4.07
2023-08-09T08:10:18.721Z,4.43
2023-08-09T08:12:49.637Z,4.15
2023-08-09T08:15:19.693Z,1.85
2023-08-09T08:17:48.222Z,2.53
2023-08-09T08:20:20.761Z,3.25
2023-08-09T08:22:50.668Z,3.55
2023-08-09T08:25:21.214Z,3.63
2023-08-09T08:27:48.957Z,3.25
2023-08-09T08:30:18.641Z,4.30
2023-08-09T08:32:47.569Z,2.25
2023-08-09T08:35:20.172Z,4.25
2023-08-09T08:37:50.543Z,2.75
2023-08-09T08:40:22.987Z,4.22
2023-08-09T08:42:51.331Z,4.53
2023-08-09T08:45:21.014Z,1.95
2023-08-09T08:47:49.395Z,4.53
2023-08-09T08:50:18.587Z,3.97
2023-08-09T08:52:49.938Z,2.92
2023-08-09T08:55:17.737Z,2.83
2023-08-09T08:57:48.861Z,2.00
2023-08-09T09:02:48.480Z,3.60
2023-08-09T09:05:19.864Z,2.78
2023-08-09T09:07:52.127Z,2.58
2023-08-09T09:10:22.257Z,3.90
2023-08-09T09:12:52.444Z,4.63
2023-08-09T09:15:20.661Z,1.95
2023-08-09T09:17:49.687Z,2.47
2023-08-09T09:20:30.941Z,3.40
2023-08-09T09:23:00.797Z,2.33
2023-08-09T09:25:28.850Z,5.97
2023-08-09T09:27:58.187Z,2.83
2023-08-09T09:30:30.840Z,1.70
2023-08-09T09:33:00.634Z,4.95
2023-08-09T09:35:30.380Z,1.67
2023-08-09T09:38:00.547Z,1.67
2023-08-09T09:40:35.957Z,4.22
2023-08-09T09:43:08.495Z,5.30
2023-08-09T09:45:38.770Z,2.13
2023-08-09T09:48:18.266Z,3.03
2023-08-09T09:50:46.486Z,3.97
2023-08-09T09:53:15.483Z,2.92
2023-08-09T09:55:43.348Z,2.55
2023-08-09T09:58:10.736Z,3.88
2023-08-09T10:00:43.183Z,2.58
2023-08-09T10:03:12.189Z,1.60
2023-08-09T10:05:46.286Z,5.65
2023-08-09T10:08:16.074Z,1.88
2023-08-09T10:10:45.494Z,2.55
2023-08-09T10:13:21.266Z,3.08
2023-08-09T10:15:54.754Z,3.92
2023-08-09T10:18:27.788Z,4.30
2023-08-09T10:20:58.685Z,1.70
2023-08-09T10:23:29.740Z,1.65
2023-08-09T10:25:58.359Z,3.28
2023-08-09T10:28:45.848Z,2.53
2023-08-09T10:31:21.247Z,2.70
2023-08-09T10:34:08.978Z,2.45
2023-08-09T10:36:36.651Z,2.05
2023-08-09T10:39:15.748Z,2.40
2023-08-09T10:41:56.728Z,1.40
2023-08-09T10:44:43.106Z,1.42
2023-08-09T10:47:19.776Z,2.72
2023-08-09T10:49:50.237Z,2.65
2023-08-09T10:52:22.095Z,3.17
2023-08-09T10:55:30.125Z,1.63
2023-08-09T10:58:00.010Z,1.42
2023-08-09T11:00:29.866Z,3.80
2023-08-09T11:03:00.590Z,1.42
2023-08-09T11:05:29.039Z,1.98
2023-08-09T11:07:58.737Z,4.10
2023-08-09T11:10:40.736Z,1.75
2023-08-09T11:13:20.159Z,2.10
2023-08-09T11:15:49.871Z,5.57
2023-08-09T11:18:17.740Z,1.33
2023-08-09T11:20:46.357Z,1.48
2023-08-09T11:23:14.442Z,2.45
2023-08-09T11:25:41.894Z,2.75
2023-08-09T11:28:14.375Z,2.45
2023-08-09T11:30:42.174Z,1.90
2023-08-09T11:33:12.214Z,2.22
2023-08-09T11:35:46.832Z,2.15
2023-08-09T11:38:17.031Z,2.88
2023-08-09T11:40:47.780Z,1.05
2023-08-09T11:43:19.898Z,2.25
2023-08-09T11:45:59.018Z,2.17
2023-08-09T11:48:30.778Z,1.00
2023-08-09T11:51:14.518Z,2.22
2023-08-09T11:53:45.156Z,2.33
2023-08-09T11:56:20.644Z,0.88
2023-08-09T11:58:55.685Z,3.85
2023-08-09T12:01:31.665Z,3.10
2023-08-09T12:04:00.880Z,1.17
2023-08-09T12:06:41.685Z,1.90
2023-08-09T12:09:35.801Z,1.98
2023-08-09T12:12:10.743Z,2.60
2023-08-09T12:14:46.459Z,1.75
2023-08-09T12:17:26.298Z,2.33
2023-08-09T12:19:59.218Z,1.60
2023-08-09T12:22:27.486Z,2.30
2023-08-09T12:24:56.241Z,2.63
2023-08-09T12:27:23.932Z,1.40
2023-08-09T12:29:51.693Z,3.60
2023-08-09T12:32:19.383Z,3.22
2023-08-09T12:34:49.461Z,2.30
2023-08-09T12:37:17.671Z,6.53
2023-08-09T12:39:45.503Z,3.30
2023-08-09T12:42:12.916Z,1.73
2023-08-09T12:44:40.664Z,1.33
2023-08-09T12:47:10.665Z,0.98
2023-08-09T12:49:39.657Z,0.98
2023-08-09T12:52:07.186Z,0.60
2023-08-09T12:54:34.911Z,2.80
2023-08-09T12:57:02.526Z,5.40
2023-08-09T12:59:30.323Z,2.05
2023-08-09T13:01:57.786Z,4.25
2023-08-09T13:04:25.915Z,2.35
2023-08-09T13:06:54.867Z,1.20
2023-08-09T13:09:22.871Z,3.55
2023-08-09T13:11:50.449Z,1.85
2023-08-09T13:14:18.487Z,3.85
2023-08-09T13:16:45.851Z,1.17
2023-08-09T13:19:13.476Z,2.42
2023-08-09T13:21:40.859Z,2.63
2023-08-09T13:24:09.726Z,2.35
2023-08-09T13:26:37.138Z,1.30
2023-08-09T13:29:05.041Z,2.15
2023-08-09T13:31:32.509Z,1.88
2023-08-09T13:34:00.289Z,2.55
2023-08-09T13:36:27.832Z,1.63
2023-08-09T13:38:55.515Z,1.23
2023-08-09T13:41:22.923Z,1.20
2023-08-09T13:43:51.014Z,1.33
2023-08-09T13:46:18.405Z,2.13
2023-08-09T13:48:46.159Z,2.22
2023-08-09T13:51:13.489Z,0.73
2023-08-09T13:53:41.129Z,0.95
2023-08-09T13:56:08.417Z,0.98
2023-08-09T13:58:36.045Z,1.10
2023-08-09T14:01:03.421Z,2.08
2023-08-09T14:03:31.035Z,2.55
2023-08-09T14:05:58.437Z,1.20
2023-08-09T14:08:26.162Z,1.42
2023-08-09T14:10:53.469Z,2.65
2023-08-09T14:13:21.438Z,2.30
2023-08-09T14:15:50.033Z,2.03
2023-08-09T14:18:17.814Z,2.95
2023-08-09T14:20:45.411Z,2.85
2023-08-09T14:23:13.533Z,3.13
2023-08-09T14:25:42.495Z,3.17
2023-08-09T14:28:10.147Z,1.38
2023-08-09T14:30:37.675Z,2.10
2023-08-09T14:33:06.778Z,3.55
2023-08-09T14:35:34.162Z,1.38
2023-08-09T14:38:01.745Z,2.65
2023-08-09T14:40:29.141Z,2.70
2023-08-09T14:42:56.775Z,2.78
2023-08-09T14:45:24.194Z,3.53
2023-08-09T14:47:51.988Z,3.20
2023-08-09T14:50:19.468Z,4.55
2023-08-09T14:52:47.381Z,1.08
2023-08-09T14:55:15.211Z,2.75
2023-08-09T14:57:42.934Z,2.78
2023-08-09T15:00:15.051Z,2.85
2023-08-09T15:02:44.565Z,3.38
2023-08-09T15:05:12.937Z,1.23
2023-08-09T15:07:41.133Z,2.42
2023-08-09T15:10:08.916Z,3.10
2023-08-09T15:12:36.648Z,1.38
2023-08-09T15:15:05.758Z,1.02
2023-08-09T15:17:33.597Z,2.17
2023-08-09T15:20:01.382Z,4.82
2023-08-09T15:22:29.226Z,2.15
2023-08-09T15:25:01.069Z,2.67
2023-08-09T15:27:28.856Z,3.90
2023-08-09T15:29:56.192Z,4.50
2023-08-09T15:32:23.844Z,2.40
2023-08-09T15:34:51.025Z,1.90
2023-08-09T15:37:18.679Z,3.35
2023-08-09T15:39:46.083Z,2.63
2023-08-09T15:42:18.558Z,1.85
2023-08-09T15:44:47.604Z,2.88
2023-08-09T15:47:19.581Z,1.10
2023-08-09T15:49:48.905Z,1.65
2023-08-09T15:52:17.812Z,2.78
2023-08-09T15:54:46.170Z,2.40
2023-08-09T15:57:13.975Z,2.00
2023-08-09T15:59:44.487Z,2.58
2023-08-09T16:02:14.778Z,2.85
2023-08-09T16:04:43.287Z,2.78
2023-08-09T16:07:12.060Z,4.20
2023-08-09T16:09:40.112Z,5.55
2023-08-09T16:12:10.573Z,1.80
2023-08-09T16:14:41.266Z,2.05
2023-08-09T16:17:08.992Z,3.38
2023-08-09T16:19:36.482Z,1.40
2023-08-09T16:22:04.775Z,5.43
2023-08-09T16:24:32.320Z,2.25
2023-08-09T16:26:59.944Z,2.03
2023-08-09T16:29:27.836Z,2.70
2023-08-09T16:31:55.525Z,3.17
2023-08-09T16:34:22.869Z,4.72
2023-08-09T16:36:50.487Z,5.45
2023-08-09T16:39:17.832Z,2.08
2023-08-09T16:41:45.604Z,2.95
2023-08-09T16:44:13.063Z,2.30
2023-08-09T16:46:42.244Z,3.03
2023-08-09T16:49:10.870Z,2.58
2023-08-09T16:51:38.499Z,3.80
2023-08-09T16:54:07.853Z,3.28
2023-08-09T16:56:36.604Z,5.40
2023-08-09T16:59:04.211Z,2.58
2023-08-09T17:01:31.995Z,6.20
2023-08-09T17:03:59.503Z,3.72
2023-08-09T17:06:27.097Z,3.80
2023-08-09T17:08:54.590Z,3.03
2023-08-09T17:11:23.288Z,6.75
2023-08-09T17:13:50.997Z,5.30
2023-08-09T17:16:20.007Z,4.57
2023-08-09T17:18:47.540Z,3.63
2023-08-09T17:21:15.189Z,2.72
2023-08-09T17:23:42.652Z,4.30
2023-08-09T17:26:12.555Z,3.30
2023-08-09T17:28:43.165Z,4.97
2023-08-09T17:31:10.833Z,4.50
2023-08-09T17:33:38.245Z,6.70
2023-08-09T17:36:07.029Z,5.40
2023-08-09T17:38:35.937Z,5.10
2023-08-09T17:41:03.577Z,7.85
2023-08-09T17:43:32.553Z,3.90
2023-08-09T17:46:00.301Z,2.90
2023-08-09T17:48:27.734Z,6.22
2023-08-09T17:50:55.377Z,4.22
2023-08-09T17:53:23.124Z,4.30
2023-08-09T17:55:50.738Z,5.60
2023-08-09T17:58:18.200Z,2.97
2023-08-09T18:00:45.835Z,2.45
2023-08-09T18:03:13.552Z,8.60
2023-08-09T18:05:41.489Z,7.63
2023-08-09T18:08:09.202Z,5.40
2023-08-09T18:10:36.975Z,9.43
2023-08-09T18:13:04.597Z,5.53
2023-08-09T18:15:32.417Z,6.72
2023-08-09T18:17:59.811Z,7.95
2023-08-09T18:20:27.491Z,10.13
2023-08-09T18:22:54.968Z,5.90
2023-08-09T18:25:23.236Z,6.60
2023-08-09T18:27:50.546Z,7.75
2023-08-09T18:30:18.250Z,6.60
2023-08-09T18:32:46.459Z,5.03
2023-08-09T18:35:18.531Z,6.25
2023-08-09T18:37:50.001Z,4.93
2023-08-09T18:40:18.203Z,6.03
2023-08-09T18:42:47.165Z,6.70
2023-08-09T18:45:16.701Z,9.38
2023-08-09T18:47:44.679Z,6.32
2023-08-09T18:50:12.734Z,8.07
2023-08-09T18:52:41.012Z,7.00
2023-08-09T18:55:09.309Z,7.18
2023-08-09T18:57:37.315Z,7.20
2023-08-09T19:00:06.545Z,6.07
2023-08-09T19:02:34.546Z,4.55
2023-08-09T19:05:02.437Z,4.07
2023-08-09T19:07:29.992Z,4.60
2023-08-09T19:09:57.628Z,4.38
2023-08-09T19:12:25.336Z,6.18
2023-08-09T19:14:52.914Z,6.18
2023-08-09T19:17:20.334Z,5.10
2023-08-09T19:19:47.986Z,3.60
2023-08-09T19:22:15.392Z,3.47
2023-08-09T19:24:43.332Z,5.68
2023-08-09T19:27:10.662Z,8.02
2023-08-09T19:29:38.419Z,6.32
2023-08-09T19:32:05.978Z,4.60
2023-08-09T19:34:36.471Z,4.00
2023-08-09T19:37:05.228Z,6.30
2023-08-09T19:39:33.603Z,7.65
2023-08-09T19:42:02.241Z,4.55
2023-08-09T19:44:29.981Z,4.25
2023-08-09T19:46:57.804Z,6.97
2023-08-09T19:49:25.504Z,3.42
2023-08-09T19:51:54.742Z,4.35
2023-08-09T19:54:22.424Z,6.53
2023-08-09T19:56:49.829Z,7.10
2023-08-09T19:59:17.471Z,4.55
2023-08-09T20:01:45.014Z,7.80
2023-08-09T20:04:13.410Z,8.07
2023-08-09T20:06:40.894Z,7.45
2023-08-09T20:09:08.649Z,6.20
2023-08-09T20:11:36.107Z,7.20
2023-08-09T20:14:03.854Z,3.10
2023-08-09T20:16:32.820Z,4.32
2023-08-09T20:19:00.811Z,6.05
2023-08-09T20:21:28.376Z,6.10
2023-08-09T20:23:55.996Z,7.15
2023-08-09T20:26:23.431Z,4.28
2023-08-09T20:28:51.136Z,6.03
2023-08-09T20:31:19.613Z,8.15
2023-08-09T20:33:47.631Z,6.72
2023-08-09T20:36:14.996Z,13.77
2023-08-09T20:38:42.778Z,7.88
2023-08-09T20:41:10.193Z,5.32
2023-08-09T20:43:37.858Z,8.13
2023-08-09T20:46:05.329Z,8.52
2023-08-09T20:48:33.037Z,8.02
2023-08-09T20:51:00.607Z,5.72
2023-08-09T20:53:28.433Z,6.80
2023-08-09T20:55:55.798Z,5.20
2023-08-09T20:58:23.509Z,8.25
2023-08-09T21:00:51.117Z,6.82
2023-08-09T21:03:19.917Z,8.75
2023-08-09T21:05:57.235Z,9.20
2023-08-09T21:08:24.897Z,8.68
2023-08-09T21:10:53.587Z,8.10
2023-08-09T21:13:21.301Z,7.90
2023-08-09T21:15:48.793Z,9.43
2023-08-09T21:18:16.849Z,8.07
2023-08-09T21:20:44.807Z,6.93
2023-08-09T21:23:13.083Z,6.40
2023-08-09T21:25:43.619Z,5.43
2023-08-09T21:28:12.632Z,11.15
2023-08-09T21:30:40.588Z,6.97
2023-08-09T21:33:09.658Z,4.97
2023-08-09T21:35:37.357Z,5.88
2023-08-09T21:38:06.250Z,7.18
2023-08-09T21:40:33.614Z,5.68
2023-08-09T21:43:01.310Z,8.20
2023-08-09T21:45:28.644Z,7.38
2023-08-09T21:47:56.517Z,6.90
2023-08-09T21:50:23.917Z,7.72
2023-08-09T21:52:51.580Z,4.97
2023-08-09T21:55:18.948Z,6.40
2023-08-09T21:57:46.494Z,5.53
2023-08-09T22:00:15.068Z,6.15
2023-08-09T22:02:43.094Z,7.82
2023-08-09T22:05:10.544Z,8.95
2023-08-09T22:07:38.112Z,5.40
2023-08-09T22:10:05.950Z,8.18
2023-08-09T22:12:33.627Z,8.38
2023-08-09T22:15:00.966Z,5.25
2023-08-09T22:17:28.723Z,6.63
2023-08-09T22:19:56.323Z,9.88
2023-08-09T22:22:24.044Z,10.43
2023-08-09T22:24:51.389Z,5.78
2023-08-09T22:27:19.047Z,6.05
2023-08-09T22:29:46.363Z,5.50
2023-08-09T22:32:13.964Z,5.80
2023-08-09T22:34:41.317Z,7.05
2023-08-09T22:37:09.164Z,6.22
2023-08-09T22:39:36.510Z,4.75
2023-08-09T22:42:04.602Z,5.53
2023-08-09T22:44:32.341Z,5.55
2023-08-09T22:47:02.016Z,6.45
2023-08-09T22:49:29.677Z,4.38
2023-08-09T22:51:57.608Z,8.75
2023-08-09T22:54:25.009Z,5.97
2023-08-09T22:56:52.611Z,5.65
2023-08-09T22:59:19.882Z,5.55
2023-08-09T23:01:47.471Z,5.80
2023-08-09T23:04:14.898Z,5.28
2023-08-09T23:06:42.671Z,5.07
2023-08-09T23:09:10.677Z,6.60
2023-08-09T23:11:38.017Z,4.65
2023-08-09T23:14:05.914Z,10.30
2023-08-09T23:16:33.353Z,6.68
2023-08-09T23:19:01.044Z,5.53
2023-08-09T23:21:28.352Z,6.15
2023-08-09T23:23:56.015Z,4.68
2023-08-09T23:26:23.382Z,7.15
2023-08-09T23:28:51.045Z,4.68
2023-08-09T23:31:18.460Z,5.38
2023-08-09T23:33:46.366Z,6.55
2023-08-09T23:36:13.734Z,3.80
2023-08-09T23:38:41.377Z,2.65
2023-08-09T23:41:09.236Z,4.05
2023-08-09T23:43:37.344Z,3.65
2023-08-09T23:46:05.934Z,5.03
2023-08-09T23:48:33.859Z,7.95
2023-08-09T23:51:01.293Z,8.43
2023-08-09T23:53:30.440Z,6.40
2023-08-09T23:55:57.913Z,8.07
2023-08-09T23:58:25.912Z,5.47
